sensor_id;sensor_type;location;lat;lon;timestamp;P1;durP1;ratioP1;P2;durP2;ratioP2
76409;SDS011;65238;42.662;23.280;2023-02-13T00:00:21;110.63;;;45.53;;
76409;SDS011;65238;42.662;23.280;2023-02-13T00:02:48;113.10;;;44.13;;
76409;SDS011;65238;42.662;23.280;2023-02-13T00:05:16;119.50;;;46.22;;
76409;SDS011;65238;42.662;23.280;2023-02-13T00:07:42;118.85;;;46.05;;
76409;SDS011;65238;42.662;23.280;2023-02-13T00:10:08;120.60;;;48.47;;
76409;SDS011;65238;42.662;23.280;2023-02-13T00:12:34;118.82;;;47.58;;
76409;SDS011;65238;42.662;23.280;2023-02-13T00:14:59;124.80;;;48.80;;
76409;SDS011;65238;42.662;23.280;2023-02-13T00:17:25;119.03;;;48.83;;
76409;SDS011;65238;42.662;23.280;2023-02-13T00:19:51;120.97;;;49.58;;
76409;SDS011;65238;42.662;23.280;2023-02-13T00:22:19;116.45;;;46.20;;
76409;SDS011;65238;42.662;23.280;2023-02-13T00:24:45;130.95;;;49.78;;
76409;SDS011;65238;42.662;23.280;2023-02-13T00:27:10;123.15;;;47.55;;
76409;SDS011;65238;42.662;23.280;2023-02-13T00:29:36;119.70;;;48.50;;
76409;SDS011;65238;42.662;23.280;2023-02-13T00:32:02;110.90;;;45.65;;
76409;SDS011;65238;42.662;23.280;2023-02-13T00:34:27;114.40;;;44.80;;
76409;SDS011;65238;42.662;23.280;2023-02-13T00:36:53;116.38;;;46.10;;
76409;SDS011;65238;42.662;23.280;2023-02-13T00:39:19;103.30;;;42.53;;
76409;SDS011;65238;42.662;23.280;2023-02-13T00:41:44;109.72;;;44.55;;
76409;SDS011;65238;42.662;23.280;2023-02-13T00:44:10;112.55;;;42.72;;
76409;SDS011;65238;42.662;23.280;2023-02-13T00:46:36;113.00;;;44.63;;
76409;SDS011;65238;42.662;23.280;2023-02-13T00:49:02;103.38;;;42.47;;
76409;SDS011;65238;42.662;23.280;2023-02-13T00:51:28;110.28;;;43.42;;
76409;SDS011;65238;42.662;23.280;2023-02-13T00:53:54;99.53;;;42.30;;
76409;SDS011;65238;42.662;23.280;2023-02-13T00:56:20;105.32;;;42.97;;
76409;SDS011;65238;42.662;23.280;2023-02-13T00:58:46;102.60;;;41.75;;
76409;SDS011;65238;42.662;23.280;2023-02-13T01:01:14;98.43;;;39.90;;
76409;SDS011;65238;42.662;23.280;2023-02-13T01:03:40;109.60;;;43.40;;
76409;SDS011;65238;42.662;23.280;2023-02-13T01:06:06;111.22;;;44.70;;
76409;SDS011;65238;42.662;23.280;2023-02-13T01:08:32;117.13;;;45.42;;
76409;SDS011;65238;42.662;23.280;2023-02-13T01:10:58;110.93;;;45.67;;
76409;SDS011;65238;42.662;23.280;2023-02-13T01:13:26;117.53;;;46.67;;
76409;SDS011;65238;42.662;23.280;2023-02-13T01:15:52;120.85;;;48.13;;
76409;SDS011;65238;42.662;23.280;2023-02-13T01:18:18;108.20;;;45.63;;
76409;SDS011;65238;42.662;23.280;2023-02-13T01:20:45;111.95;;;45.78;;
76409;SDS011;65238;42.662;23.280;2023-02-13T01:23:20;114.13;;;45.67;;
76409;SDS011;65238;42.662;23.280;2023-02-13T01:25:46;109.55;;;44.63;;
76409;SDS011;65238;42.662;23.280;2023-02-13T01:28:11;120.93;;;46.78;;
76409;SDS011;65238;42.662;23.280;2023-02-13T01:30:37;115.53;;;45.13;;
76409;SDS011;65238;42.662;23.280;2023-02-13T01:33:03;116.43;;;43.00;;
76409;SDS011;65238;42.662;23.280;2023-02-13T01:35:28;108.68;;;43.10;;
76409;SDS011;65238;42.662;23.280;2023-02-13T01:37:54;111.20;;;42.72;;
76409;SDS011;65238;42.662;23.280;2023-02-13T01:40:19;112.60;;;43.50;;
76409;SDS011;65238;42.662;23.280;2023-02-13T01:42:45;109.82;;;43.03;;
76409;SDS011;65238;42.662;23.280;2023-02-13T01:47:46;113.65;;;42.88;;
76409;SDS011;65238;42.662;23.280;2023-02-13T01:52:49;110.28;;;42.60;;
76409;SDS011;65238;42.662;23.280;2023-02-13T01:55:21;108.90;;;43.55;;
76409;SDS011;65238;42.662;23.280;2023-02-13T01:57:52;99.68;;;42.30;;
76409;SDS011;65238;42.662;23.280;2023-02-13T02:00:22;113.15;;;42.88;;
76409;SDS011;65238;42.662;23.280;2023-02-13T02:02:51;110.07;;;42.35;;
76409;SDS011;65238;42.662;23.280;2023-02-13T02:05:20;107.30;;;43.22;;
76409;SDS011;65238;42.662;23.280;2023-02-13T02:07:46;102.90;;;42.35;;
76409;SDS011;65238;42.662;23.280;2023-02-13T02:10:14;112.93;;;42.80;;
76409;SDS011;65238;42.662;23.280;2023-02-13T02:15:28;106.68;;;42.05;;
76409;SDS011;65238;42.662;23.280;2023-02-13T02:17:57;108.22;;;43.83;;
76409;SDS011;65238;42.662;23.280;2023-02-13T02:30:55;115.45;;;42.85;;
76409;SDS011;65238;42.662;23.280;2023-02-13T02:36:26;116.95;;;44.25;;
76409;SDS011;65238;42.662;23.280;2023-02-13T02:39:17;114.28;;;44.78;;
76409;SDS011;65238;42.662;23.280;2023-02-13T02:50:11;110.05;;;41.83;;
76409;SDS011;65238;42.662;23.280;2023-02-13T02:58:18;100.50;;;40.45;;
76409;SDS011;65238;42.662;23.280;2023-02-13T03:01:05;107.97;;;41.38;;
76409;SDS011;65238;42.662;23.280;2023-02-13T03:03:51;104.70;;;40.22;;
76409;SDS011;65238;42.662;23.280;2023-02-13T03:06:48;106.28;;;43.13;;
76409;SDS011;65238;42.662;23.280;2023-02-13T03:09:18;104.30;;;41.85;;
76409;SDS011;65238;42.662;23.280;2023-02-13T03:12:05;107.35;;;42.05;;
76409;SDS011;65238;42.662;23.280;2023-02-13T03:14:48;103.07;;;41.75;;
76409;SDS011;65238;42.662;23.280;2023-02-13T03:17:15;105.78;;;42.33;;
76409;SDS011;65238;42.662;23.280;2023-02-13T03:25:49;98.85;;;39.17;;
76409;SDS011;65238;42.662;23.280;2023-02-13T03:28:29;104.82;;;41.20;;
76409;SDS011;65238;42.662;23.280;2023-02-13T03:34:16;100.07;;;40.92;;
76409;SDS011;65238;42.662;23.280;2023-02-13T03:36:46;97.88;;;39.50;;
76409;SDS011;65238;42.662;23.280;2023-02-13T03:42:32;101.95;;;41.90;;
76409;SDS011;65238;42.662;23.280;2023-02-13T03:45:06;102.07;;;40.35;;
76409;SDS011;65238;42.662;23.280;2023-02-13T03:47:54;98.82;;;39.08;;
76409;SDS011;65238;42.662;23.280;2023-02-13T03:50:21;99.97;;;40.10;;
76409;SDS011;65238;42.662;23.280;2023-02-13T03:53:00;100.43;;;40.05;;
76409;SDS011;65238;42.662;23.280;2023-02-13T03:55:31;98.18;;;38.30;;
76409;SDS011;65238;42.662;23.280;2023-02-13T03:58:21;92.25;;;37.60;;
76409;SDS011;65238;42.662;23.280;2023-02-13T04:01:07;94.45;;;38.40;;
76409;SDS011;65238;42.662;23.280;2023-02-13T04:06:02;99.82;;;41.08;;
76409;SDS011;65238;42.662;23.280;2023-02-13T04:08:31;103.50;;;39.85;;
76409;SDS011;65238;42.662;23.280;2023-02-13T04:11:05;103.72;;;40.80;;
76409;SDS011;65238;42.662;23.280;2023-02-13T04:13:55;99.07;;;39.58;;
76409;SDS011;65238;42.662;23.280;2023-02-13T04:16:28;97.65;;;40.70;;
76409;SDS011;65238;42.662;23.280;2023-02-13T04:18:57;101.03;;;39.13;;
76409;SDS011;65238;42.662;23.280;2023-02-13T04:21:23;96.80;;;38.58;;
76409;SDS011;65238;42.662;23.280;2023-02-13T04:23:49;95.15;;;38.65;;
76409;SDS011;65238;42.662;23.280;2023-02-13T04:26:18;98.72;;;37.70;;
76409;SDS011;65238;42.662;23.280;2023-02-13T04:28:46;92.38;;;38.35;;
76409;SDS011;65238;42.662;23.280;2023-02-13T04:31:11;94.15;;;40.13;;
76409;SDS011;65238;42.662;23.280;2023-02-13T04:33:37;94.53;;;38.72;;
76409;SDS011;65238;42.662;23.280;2023-02-13T04:36:02;98.25;;;39.75;;
76409;SDS011;65238;42.662;23.280;2023-02-13T04:38:28;99.05;;;39.28;;
76409;SDS011;65238;42.662;23.280;2023-02-13T04:40:53;97.20;;;38.35;;
76409;SDS011;65238;42.662;23.280;2023-02-13T04:43:18;109.28;;;39.80;;
76409;SDS011;65238;42.662;23.280;2023-02-13T04:45:46;98.25;;;39.90;;
76409;SDS011;65238;42.662;23.280;2023-02-13T04:48:13;92.78;;;38.42;;
76409;SDS011;65238;42.662;23.280;2023-02-13T04:50:38;96.53;;;38.72;;
76409;SDS011;65238;42.662;23.280;2023-02-13T04:53:03;97.13;;;38.47;;
76409;SDS011;65238;42.662;23.280;2023-02-13T04:55:29;103.97;;;40.45;;
76409;SDS011;65238;42.662;23.280;2023-02-13T04:57:54;88.88;;;39.05;;
76409;SDS011;65238;42.662;23.280;2023-02-13T05:00:20;99.80;;;39.40;;
76409;SDS011;65238;42.662;23.280;2023-02-13T05:02:47;95.07;;;39.28;;
76409;SDS011;65238;42.662;23.280;2023-02-13T05:05:12;94.85;;;38.85;;
76409;SDS011;65238;42.662;23.280;2023-02-13T05:07:38;96.25;;;38.50;;
76409;SDS011;65238;42.662;23.280;2023-02-13T05:10:03;96.72;;;38.70;;
76409;SDS011;65238;42.662;23.280;2023-02-13T05:12:29;105.47;;;42.72;;
76409;SDS011;65238;42.662;23.280;2023-02-13T05:14:54;99.82;;;40.65;;
76409;SDS011;65238;42.662;23.280;2023-02-13T05:17:20;95.63;;;38.72;;
76409;SDS011;65238;42.662;23.280;2023-02-13T05:19:46;93.80;;;39.13;;
76409;SDS011;65238;42.662;23.280;2023-02-13T05:22:11;96.35;;;38.78;;
76409;SDS011;65238;42.662;23.280;2023-02-13T05:24:55;87.95;;;36.08;;
76409;SDS011;65238;42.662;23.280;2023-02-13T05:27:20;92.53;;;36.95;;
76409;SDS011;65238;42.662;23.280;2023-02-13T05:29:46;97.72;;;37.63;;
76409;SDS011;65238;42.662;23.280;2023-02-13T05:32:11;87.63;;;37.72;;
76409;SDS011;65238;42.662;23.280;2023-02-13T05:34:37;95.35;;;39.88;;
76409;SDS011;65238;42.662;23.280;2023-02-13T05:37:02;93.47;;;36.17;;
76409;SDS011;65238;42.662;23.280;2023-02-13T05:39:27;86.53;;;38.03;;
76409;SDS011;65238;42.662;23.280;2023-02-13T05:41:53;90.32;;;39.15;;
76409;SDS011;65238;42.662;23.280;2023-02-13T05:44:18;89.88;;;37.75;;
76409;SDS011;65238;42.662;23.280;2023-02-13T05:46:44;92.95;;;35.80;;
76409;SDS011;65238;42.662;23.280;2023-02-13T05:49:10;93.45;;;38.08;;
76409;SDS011;65238;42.662;23.280;2023-02-13T05:51:36;93.95;;;36.67;;
76409;SDS011;65238;42.662;23.280;2023-02-13T05:54:01;108.28;;;37.85;;
76409;SDS011;65238;42.662;23.280;2023-02-13T05:56:27;94.10;;;36.95;;
76409;SDS011;65238;42.662;23.280;2023-02-13T05:58:53;98.15;;;37.60;;
76409;SDS011;65238;42.662;23.280;2023-02-13T06:01:19;92.78;;;39.08;;
76409;SDS011;65238;42.662;23.280;2023-02-13T06:03:46;92.03;;;38.55;;
76409;SDS011;65238;42.662;23.280;2023-02-13T06:06:11;98.65;;;38.55;;
76409;SDS011;65238;42.662;23.280;2023-02-13T06:08:36;94.63;;;37.88;;
76409;SDS011;65238;42.662;23.280;2023-02-13T06:11:02;87.03;;;36.13;;
76409;SDS011;65238;42.662;23.280;2023-02-13T06:13:28;97.53;;;39.53;;
76409;SDS011;65238;42.662;23.280;2023-02-13T06:15:53;92.88;;;36.40;;
76409;SDS011;65238;42.662;23.280;2023-02-13T06:18:19;91.30;;;37.58;;
76409;SDS011;65238;42.662;23.280;2023-02-13T06:20:44;94.50;;;39.10;;
76409;SDS011;65238;42.662;23.280;2023-02-13T06:23:09;95.68;;;38.95;;
76409;SDS011;65238;42.662;23.280;2023-02-13T06:25:35;93.80;;;39.63;;
76409;SDS011;65238;42.662;23.280;2023-02-13T06:28:02;96.75;;;38.80;;
76409;SDS011;65238;42.662;23.280;2023-02-13T06:30:27;93.65;;;38.92;;
76409;SDS011;65238;42.662;23.280;2023-02-13T06:32:53;95.75;;;39.60;;
76409;SDS011;65238;42.662;23.280;2023-02-13T06:35:18;103.50;;;41.78;;
76409;SDS011;65238;42.662;23.280;2023-02-13T06:37:44;103.32;;;42.42;;
76409;SDS011;65238;42.662;23.280;2023-02-13T06:40:10;105.90;;;41.53;;
76409;SDS011;65238;42.662;23.280;2023-02-13T06:42:37;105.03;;;43.95;;
76409;SDS011;65238;42.662;23.280;2023-02-13T06:45:03;98.00;;;42.13;;
76409;SDS011;65238;42.662;23.280;2023-02-13T06:47:30;111.15;;;44.72;;
76409;SDS011;65238;42.662;23.280;2023-02-13T06:49:55;101.25;;;42.17;;
76409;SDS011;65238;42.662;23.280;2023-02-13T06:52:20;107.50;;;44.75;;
76409;SDS011;65238;42.662;23.280;2023-02-13T06:54:46;109.05;;;43.28;;
76409;SDS011;65238;42.662;23.280;2023-02-13T06:57:11;109.93;;;46.70;;
76409;SDS011;65238;42.662;23.280;2023-02-13T06:59:37;109.53;;;44.88;;
76409;SDS011;65238;42.662;23.280;2023-02-13T07:02:02;109.85;;;44.88;;
76409;SDS011;65238;42.662;23.280;2023-02-13T07:04:29;106.05;;;43.58;;
76409;SDS011;65238;42.662;23.280;2023-02-13T07:06:55;95.38;;;39.72;;
76409;SDS011;65238;42.662;23.280;2023-02-13T07:09:21;91.45;;;37.60;;
76409;SDS011;65238;42.662;23.280;2023-02-13T07:11:47;96.13;;;39.15;;
76409;SDS011;65238;42.662;23.280;2023-02-13T07:14:12;84.97;;;35.25;;
76409;SDS011;65238;42.662;23.280;2023-02-13T07:16:38;85.10;;;35.15;;
76409;SDS011;65238;42.662;23.280;2023-02-13T07:19:04;88.38;;;36.85;;
76409;SDS011;65238;42.662;23.280;2023-02-13T07:21:29;91.50;;;36.80;;
76409;SDS011;65238;42.662;23.280;2023-02-13T07:23:54;87.10;;;37.10;;
76409;SDS011;65238;42.662;23.280;2023-02-13T07:26:20;87.38;;;35.63;;
76409;SDS011;65238;42.662;23.280;2023-02-13T07:28:45;79.78;;;33.92;;
76409;SDS011;65238;42.662;23.280;2023-02-13T07:31:11;81.07;;;35.30;;
76409;SDS011;65238;42.662;23.280;2023-02-13T07:33:36;85.65;;;34.33;;
76409;SDS011;65238;42.662;23.280;2023-02-13T07:36:02;78.43;;;33.72;;
76409;SDS011;65238;42.662;23.280;2023-02-13T07:38:29;76.93;;;32.42;;
76409;SDS011;65238;42.662;23.280;2023-02-13T07:40:59;83.78;;;33.88;;
76409;SDS011;65238;42.662;23.280;2023-02-13T07:43:25;82.00;;;35.13;;
76409;SDS011;65238;42.662;23.280;2023-02-13T07:45:50;80.20;;;35.08;;
76409;SDS011;65238;42.662;23.280;2023-02-13T07:48:20;77.40;;;33.80;;
76409;SDS011;65238;42.662;23.280;2023-02-13T07:50:46;81.97;;;34.88;;
76409;SDS011;65238;42.662;23.280;2023-02-13T07:53:11;82.55;;;33.67;;
76409;SDS011;65238;42.662;23.280;2023-02-13T07:55:37;79.10;;;33.92;;
76409;SDS011;65238;42.662;23.280;2023-02-13T07:58:03;94.60;;;37.42;;
76409;SDS011;65238;42.662;23.280;2023-02-13T08:00:28;87.45;;;37.22;;
76409;SDS011;65238;42.662;23.280;2023-02-13T08:02:54;86.03;;;34.28;;
76409;SDS011;65238;42.662;23.280;2023-02-13T08:05:22;79.97;;;32.78;;
76409;SDS011;65238;42.662;23.280;2023-02-13T08:07:47;86.22;;;35.35;;
76409;SDS011;65238;42.662;23.280;2023-02-13T08:10:13;84.50;;;35.53;;
76409;SDS011;65238;42.662;23.280;2023-02-13T08:12:57;93.97;;;37.30;;
76409;SDS011;65238;42.662;23.280;2023-02-13T08:15:23;91.20;;;36.40;;
76409;SDS011;65238;42.662;23.280;2023-02-13T08:17:48;89.65;;;37.10;;
76409;SDS011;65238;42.662;23.280;2023-02-13T08:20:13;86.32;;;36.92;;
76409;SDS011;65238;42.662;23.280;2023-02-13T08:22:39;82.50;;;36.63;;
76409;SDS011;65238;42.662;23.280;2023-02-13T08:25:05;88.47;;;35.38;;
76409;SDS011;65238;42.662;23.280;2023-02-13T08:27:31;82.03;;;33.15;;
76409;SDS011;65238;42.662;23.280;2023-02-13T08:29:57;81.75;;;35.17;;
76409;SDS011;65238;42.662;23.280;2023-02-13T08:32:23;88.55;;;36.03;;
76409;SDS011;65238;42.662;23.280;2023-02-13T08:34:49;81.18;;;35.78;;
76409;SDS011;65238;42.662;23.280;2023-02-13T08:37:15;83.90;;;35.15;;
76409;SDS011;65238;42.662;23.280;2023-02-13T08:39:40;88.05;;;36.60;;
76409;SDS011;65238;42.662;23.280;2023-02-13T08:42:06;83.55;;;35.38;;
76409;SDS011;65238;42.662;23.280;2023-02-13T08:44:31;91.75;;;37.65;;
76409;SDS011;65238;42.662;23.280;2023-02-13T08:46:57;84.35;;;35.97;;
76409;SDS011;65238;42.662;23.280;2023-02-13T08:49:22;84.90;;;34.53;;
76409;SDS011;65238;42.662;23.280;2023-02-13T08:51:48;88.50;;;37.60;;
76409;SDS011;65238;42.662;23.280;2023-02-13T08:54:14;90.35;;;37.42;;
76409;SDS011;65238;42.662;23.280;2023-02-13T08:56:40;84.78;;;34.58;;
76409;SDS011;65238;42.662;23.280;2023-02-13T08:59:06;90.18;;;38.63;;
76409;SDS011;65238;42.662;23.280;2023-02-13T09:01:31;89.50;;;36.75;;
76409;SDS011;65238;42.662;23.280;2023-02-13T09:03:57;83.95;;;34.83;;
76409;SDS011;65238;42.662;23.280;2023-02-13T09:06:22;86.68;;;37.53;;
76409;SDS011;65238;42.662;23.280;2023-02-13T09:08:50;86.65;;;36.88;;
76409;SDS011;65238;42.662;23.280;2023-02-13T09:11:16;88.22;;;36.20;;
76409;SDS011;65238;42.662;23.280;2023-02-13T09:13:43;84.60;;;36.30;;
76409;SDS011;65238;42.662;23.280;2023-02-13T09:16:09;81.75;;;36.33;;
76409;SDS011;65238;42.662;23.280;2023-02-13T09:18:35;84.13;;;34.53;;
76409;SDS011;65238;42.662;23.280;2023-02-13T09:21:01;82.43;;;36.60;;
76409;SDS011;65238;42.662;23.280;2023-02-13T09:23:31;84.13;;;36.80;;
76409;SDS011;65238;42.662;23.280;2023-02-13T09:25:58;82.63;;;35.80;;
76409;SDS011;65238;42.662;23.280;2023-02-13T09:28:25;84.35;;;36.55;;
76409;SDS011;65238;42.662;23.280;2023-02-13T09:30:50;81.70;;;36.42;;
76409;SDS011;65238;42.662;23.280;2023-02-13T09:33:16;76.13;;;33.75;;
76409;SDS011;65238;42.662;23.280;2023-02-13T09:35:42;79.32;;;34.55;;
76409;SDS011;65238;42.662;23.280;2023-02-13T09:38:07;81.80;;;34.88;;
76409;SDS011;65238;42.662;23.280;2023-02-13T09:43:11;81.40;;;34.83;;
76409;SDS011;65238;42.662;23.280;2023-02-13T09:45:39;81.72;;;35.80;;
76409;SDS011;65238;42.662;23.280;2023-02-13T09:48:04;77.47;;;36.20;;
76409;SDS011;65238;42.662;23.280;2023-02-13T09:50:30;81.47;;;35.22;;
76409;SDS011;65238;42.662;23.280;2023-02-13T09:53:00;81.93;;;36.55;;
76409;SDS011;65238;42.662;23.280;2023-02-13T09:55:28;86.25;;;37.33;;
76409;SDS011;65238;42.662;23.280;2023-02-13T10:00:41;76.07;;;34.65;;
76409;SDS011;65238;42.662;23.280;2023-02-13T10:03:17;78.55;;;35.10;;
76409;SDS011;65238;42.662;23.280;2023-02-13T10:05:48;77.00;;;34.42;;
76409;SDS011;65238;42.662;23.280;2023-02-13T10:16:16;78.13;;;36.45;;
76409;SDS011;65238;42.662;23.280;2023-02-13T10:21:32;81.47;;;36.80;;
76409;SDS011;65238;42.662;23.280;2023-02-13T10:24:00;75.35;;;35.78;;
76409;SDS011;65238;42.662;23.280;2023-02-13T10:26:31;81.25;;;35.72;;
76409;SDS011;65238;42.662;23.280;2023-02-13T10:32:21;78.47;;;35.90;;
76409;SDS011;65238;42.662;23.280;2023-02-13T10:34:51;75.53;;;36.50;;
76409;SDS011;65238;42.662;23.280;2023-02-13T10:37:18;72.43;;;33.00;;
76409;SDS011;65238;42.662;23.280;2023-02-13T10:39:47;81.63;;;34.72;;
76409;SDS011;65238;42.662;23.280;2023-02-13T10:48:01;73.38;;;32.72;;
76409;SDS011;65238;42.662;23.280;2023-02-13T10:59:07;65.13;;;29.92;;
76409;SDS011;65238;42.662;23.280;2023-02-13T11:04:09;66.88;;;29.92;;
76409;SDS011;65238;42.662;23.280;2023-02-13T11:06:36;61.40;;;28.30;;
76409;SDS011;65238;42.662;23.280;2023-02-13T11:09:06;65.65;;;29.50;;
76409;SDS011;65238;42.662;23.280;2023-02-13T11:11:36;64.38;;;28.90;;
76409;SDS011;65238;42.662;23.280;2023-02-13T11:14:13;60.65;;;26.27;;
76409;SDS011;65238;42.662;23.280;2023-02-13T11:21:56;55.65;;;26.27;;
76409;SDS011;65238;42.662;23.280;2023-02-13T11:24:25;56.15;;;26.50;;
76409;SDS011;65238;42.662;23.280;2023-02-13T11:26:52;58.83;;;27.48;;
76409;SDS011;65238;42.662;23.280;2023-02-13T11:29:23;61.20;;;27.88;;
76409;SDS011;65238;42.662;23.280;2023-02-13T11:32:17;57.30;;;27.33;;
76409;SDS011;65238;42.662;23.280;2023-02-13T11:34:44;57.42;;;26.23;;
76409;SDS011;65238;42.662;23.280;2023-02-13T11:39:47;55.97;;;22.73;;
76409;SDS011;65238;42.662;23.280;2023-02-13T11:42:27;50.47;;;24.05;;
76409;SDS011;65238;42.662;23.280;2023-02-13T11:44:57;56.30;;;22.40;;
76409;SDS011;65238;42.662;23.280;2023-02-13T11:49:59;49.95;;;22.77;;
76409;SDS011;65238;42.662;23.280;2023-02-13T11:52:26;48.95;;;21.63;;
76409;SDS011;65238;42.662;23.280;2023-02-13T11:54:57;45.45;;;20.60;;
76409;SDS011;65238;42.662;23.280;2023-02-13T11:57:34;40.22;;;18.70;;
76409;SDS011;65238;42.662;23.280;2023-02-13T12:02:50;43.10;;;20.45;;
76409;SDS011;65238;42.662;23.280;2023-02-13T12:05:20;45.80;;;21.42;;
76409;SDS011;65238;42.662;23.280;2023-02-13T12:07:47;49.80;;;21.52;;
76409;SDS011;65238;42.662;23.280;2023-02-13T12:10:23;45.90;;;20.85;;
76409;SDS011;65238;42.662;23.280;2023-02-13T12:15:38;40.90;;;19.00;;
76409;SDS011;65238;42.662;23.280;2023-02-13T12:23:19;43.70;;;19.77;;
76409;SDS011;65238;42.662;23.280;2023-02-13T12:25:52;43.20;;;19.25;;
76409;SDS011;65238;42.662;23.280;2023-02-13T12:42:04;37.15;;;18.42;;
76409;SDS011;65238;42.662;23.280;2023-02-13T12:44:55;44.70;;;17.58;;
76409;SDS011;65238;42.662;23.280;2023-02-13T12:47:47;33.58;;;16.45;;
76409;SDS011;65238;42.662;23.280;2023-02-13T12:56:01;40.65;;;18.63;;
76409;SDS011;65238;42.662;23.280;2023-02-13T13:18:10;37.13;;;17.50;;
76409;SDS011;65238;42.662;23.280;2023-02-13T13:23:12;30.60;;;14.82;;
76409;SDS011;65238;42.662;23.280;2023-02-13T13:28:48;34.53;;;17.30;;
76409;SDS011;65238;42.662;23.280;2023-02-13T13:31:16;36.97;;;17.58;;
76409;SDS011;65238;42.662;23.280;2023-02-13T13:33:43;36.22;;;16.67;;
76409;SDS011;65238;42.662;23.280;2023-02-13T13:50:00;34.83;;;16.88;;
76409;SDS011;65238;42.662;23.280;2023-02-13T13:52:28;31.45;;;15.73;;
76409;SDS011;65238;42.662;23.280;2023-02-13T13:54:56;35.95;;;17.40;;
76409;SDS011;65238;42.662;23.280;2023-02-13T14:02:42;31.45;;;15.00;;
76409;SDS011;65238;42.662;23.280;2023-02-13T14:07:44;32.67;;;16.35;;
76409;SDS011;65238;42.662;23.280;2023-02-13T14:31:36;31.75;;;15.85;;
76409;SDS011;65238;42.662;23.280;2023-02-13T14:34:04;34.00;;;16.98;;
76409;SDS011;65238;42.662;23.280;2023-02-13T14:36:42;32.58;;;16.98;;
76409;SDS011;65238;42.662;23.280;2023-02-13T14:41:57;36.10;;;16.75;;
76409;SDS011;65238;42.662;23.280;2023-02-13T14:44:31;32.53;;;15.82;;
76409;SDS011;65238;42.662;23.280;2023-02-13T14:47:01;30.65;;;14.57;;
76409;SDS011;65238;42.662;23.280;2023-02-13T14:49:29;29.08;;;14.35;;
76409;SDS011;65238;42.662;23.280;2023-02-13T14:51:57;32.75;;;15.93;;
76409;SDS011;65238;42.662;23.280;2023-02-13T14:54:31;29.10;;;14.80;;
76409;SDS011;65238;42.662;23.280;2023-02-13T14:56:59;31.50;;;15.82;;
76409;SDS011;65238;42.662;23.280;2023-02-13T14:59:30;31.08;;;14.90;;
76409;SDS011;65238;42.662;23.280;2023-02-13T15:02:03;35.63;;;15.60;;
76409;SDS011;65238;42.662;23.280;2023-02-13T15:04:45;31.55;;;15.95;;
76409;SDS011;65238;42.662;23.280;2023-02-13T15:07:17;29.90;;;14.93;;
76409;SDS011;65238;42.662;23.280;2023-02-13T15:10:22;27.58;;;14.00;;
76409;SDS011;65238;42.662;23.280;2023-02-13T15:13:00;30.17;;;14.60;;
76409;SDS011;65238;42.662;23.280;2023-02-13T15:15:27;30.38;;;15.35;;
76409;SDS011;65238;42.662;23.280;2023-02-13T15:18:00;33.70;;;15.60;;
76409;SDS011;65238;42.662;23.280;2023-02-13T15:20:27;33.15;;;16.58;;
76409;SDS011;65238;42.662;23.280;2023-02-13T15:22:55;30.20;;;14.93;;
76409;SDS011;65238;42.662;23.280;2023-02-13T15:25:37;34.85;;;15.70;;
76409;SDS011;65238;42.662;23.280;2023-02-13T15:28:07;34.92;;;16.00;;
76409;SDS011;65238;42.662;23.280;2023-02-13T15:30:50;35.40;;;16.50;;
76409;SDS011;65238;42.662;23.280;2023-02-13T15:33:23;32.60;;;16.33;;
76409;SDS011;65238;42.662;23.280;2023-02-13T15:36:01;34.45;;;15.73;;
76409;SDS011;65238;42.662;23.280;2023-02-13T15:38:32;40.28;;;17.67;;
76409;SDS011;65238;42.662;23.280;2023-02-13T15:41:26;32.60;;;16.02;;
76409;SDS011;65238;42.662;23.280;2023-02-13T15:43:50;78.07;;;29.52;;
76409;SDS011;65238;42.662;23.280;2023-02-13T15:46:24;62.33;;;25.40;;
76409;SDS011;65238;42.662;23.280;2023-02-13T15:48:52;54.15;;;22.45;;
76409;SDS011;65238;42.662;23.280;2023-02-13T15:51:19;39.45;;;20.48;;
76409;SDS011;65238;42.662;23.280;2023-02-13T15:54:03;41.20;;;20.88;;
76409;SDS011;65238;42.662;23.280;2023-02-13T15:56:30;40.70;;;20.67;;
76409;SDS011;65238;42.662;23.280;2023-02-13T15:58:57;41.13;;;20.30;;
76409;SDS011;65238;42.662;23.280;2023-02-13T16:01:23;50.45;;;21.77;;
76409;SDS011;65238;42.662;23.280;2023-02-13T16:04:10;47.90;;;22.77;;
76409;SDS011;65238;42.662;23.280;2023-02-13T16:06:34;48.33;;;21.38;;
76409;SDS011;65238;42.662;23.280;2023-02-13T16:09:00;46.33;;;21.65;;
76409;SDS011;65238;42.662;23.280;2023-02-13T16:16:43;46.20;;;21.80;;
76409;SDS011;65238;42.662;23.280;2023-02-13T16:24:49;49.95;;;22.80;;
76409;SDS011;65238;42.662;23.280;2023-02-13T16:27:17;48.28;;;24.05;;
76409;SDS011;65238;42.662;23.280;2023-02-13T16:29:51;50.75;;;24.30;;
76409;SDS011;65238;42.662;23.280;2023-02-13T16:32:22;56.40;;;26.00;;
76409;SDS011;65238;42.662;23.280;2023-02-13T16:34:59;54.40;;;25.05;;
76409;SDS011;65238;42.662;23.280;2023-02-13T16:37:56;56.63;;;25.13;;
76409;SDS011;65238;42.662;23.280;2023-02-13T16:40:32;53.58;;;25.70;;
76409;SDS011;65238;42.662;23.280;2023-02-13T16:48:44;50.67;;;23.35;;
76409;SDS011;65238;42.662;23.280;2023-02-13T16:53:58;50.63;;;23.35;;
76409;SDS011;65238;42.662;23.280;2023-02-13T16:56:24;52.08;;;24.77;;
76409;SDS011;65238;42.662;23.280;2023-02-13T16:58:51;51.35;;;25.83;;
76409;SDS011;65238;42.662;23.280;2023-02-13T17:01:38;54.00;;;24.85;;
76409;SDS011;65238;42.662;23.280;2023-02-13T17:04:13;53.00;;;25.85;;
76409;SDS011;65238;42.662;23.280;2023-02-13T17:06:55;56.53;;;24.52;;
76409;SDS011;65238;42.662;23.280;2023-02-13T17:09:21;50.95;;;24.38;;
76409;SDS011;65238;42.662;23.280;2023-02-13T17:11:52;48.50;;;25.13;;
76409;SDS011;65238;42.662;23.280;2023-02-13T17:14:18;48.92;;;24.90;;
76409;SDS011;65238;42.662;23.280;2023-02-13T17:16:47;54.40;;;25.20;;
76409;SDS011;65238;42.662;23.280;2023-02-13T17:19:13;52.78;;;25.27;;
76409;SDS011;65238;42.662;23.280;2023-02-13T17:21:39;48.08;;;23.65;;
76409;SDS011;65238;42.662;23.280;2023-02-13T17:24:12;46.63;;;23.58;;
76409;SDS011;65238;42.662;23.280;2023-02-13T17:26:44;50.83;;;25.48;;
76409;SDS011;65238;42.662;23.280;2023-02-13T17:29:10;46.00;;;22.98;;
76409;SDS011;65238;42.662;23.280;2023-02-13T17:31:36;48.83;;;23.83;;
76409;SDS011;65238;42.662;23.280;2023-02-13T17:34:01;50.08;;;23.45;;
76409;SDS011;65238;42.662;23.280;2023-02-13T17:36:28;46.60;;;24.17;;
76409;SDS011;65238;42.662;23.280;2023-02-13T17:38:53;49.97;;;24.77;;
76409;SDS011;65238;42.662;23.280;2023-02-13T17:41:18;52.95;;;26.10;;
76409;SDS011;65238;42.662;23.280;2023-02-13T17:43:44;53.33;;;23.92;;
76409;SDS011;65238;42.662;23.280;2023-02-13T17:46:10;47.42;;;23.38;;
76409;SDS011;65238;42.662;23.280;2023-02-13T17:48:35;50.08;;;24.40;;
76409;SDS011;65238;42.662;23.280;2023-02-13T17:51:01;54.65;;;25.65;;
76409;SDS011;65238;42.662;23.280;2023-02-13T17:53:30;53.22;;;25.42;;